Terminal Aerodrome Forecast
Issued by NWS Sioux Falls, SD

Home | Current Version | Previous Version | Graphics & Text | Print | Product List | Glossary Off
Versions: 1 2 3 4 5 6 7 8 9 10 11 12 13 14 15 16

000
FTUS43 KFSD 211740
TAFSUX
TAF
KSUX 211740Z 2118/2218 VRB03KT P6SM SKC
     FM220300 09005KT P6SM BKN100
     FM220900 10005KT P6SM VCSH OVC025
     FM221200 10006KT 4SM -SN BR OVC010
     FM221300 10007KT 2SM -SN OVC010
     FM221700 10008KT 1SM -FZDZSN BR OVC010=

USA.gov is the U.S. government's official web portal to all federal, state and local government web resources and services.